Latest Weather Observations for Walpeup

IDV60801

Issued at 6:03 pm EST Monday 25 September 2017 (issued every 30 minutes, with the page automatically refreshed every 10 minutes)

About weather observations | Map of weather stations | Latest weather observations for VIC | Other Formats
Station Details ID: 076064 Name: WALPEUP RESEARCH Lat: -35.12 Lon: 142.00 Height: 105.0 m
Data from the previous 72 hours. | See also: Recent months at Walpeup
Date/Time
EST
Temp
°C
App
Temp
°C
Dew
Point
°C
Rel
Hum
%
Delta-T
°C
Wind Press
QNH
hPa
Press
MSL
hPa
Rain since
9am
mm
Dir  Spd
km/h
Gust
km/h
Spd
kts
Gust
kts
25/06:00pm 17.6 13.7 5.5 45 5.9 SW 15 20 8 11 - - 0.0
25/05:30pm 18.5 14.2 5.4 42 6.4 SW 17 24 9 13 - - 0.0
25/05:00pm 18.9 15.5 5.7 42 6.5 WSW 13 20 7 11 - - 0.0
25/04:30pm 19.0 15.4 5.1 40 6.8 WSW 13 20 7 11 - - 0.0
25/04:00pm 20.4 16.0 4.8 36 7.6 WSW 17 28 9 15 - - 0.0
25/03:30pm 20.4 15.6 5.6 38 7.4 WSW 20 33 11 18 - - 0.0
25/03:00pm 19.8 15.2 5.8 40 7.0 WSW 19 30 10 16 - - 0.0
25/02:30pm 20.0 16.1 7.1 43 6.6 WSW 17 28 9 15 - - 0.0
25/02:00pm 19.7 14.7 6.4 42 6.7 WSW 22 37 12 20 - - 0.0
25/01:30pm 19.3 13.9 4.6 38 7.1 WSW 22 35 12 19 - - 0.0
25/01:00pm 20.0 14.8 5.3 38 7.2 W 22 35 12 19 - - 0.0
25/12:30pm 19.5 15.3 5.9 41 6.8 W 17 30 9 16 - - 0.0
25/12:00pm 18.4 13.8 6.3 45 6.0 W 20 28 11 15 - - 0.0
25/11:30am 18.8 14.4 7.6 48 5.7 WNW 20 30 11 16 - - 0.0
25/11:00am 17.8 13.4 7.2 50 5.3 W 20 30 11 16 - - 0.0
25/10:30am 16.2 11.9 6.9 54 4.6 W 19 30 10 16 - - 0.0
25/10:00am 15.8 11.4 7.3 57 4.2 W 20 32 11 17 - - 0.0
25/09:30am 14.8 10.4 7.6 62 3.6 W 20 32 11 17 - - 0.0
25/09:00am 14.1 10.0 7.9 66 3.1 W 19 30 10 16 - - 0.0
25/08:30am 12.4 8.7 6.2 66 2.9 WNW 15 22 8 12 - - 0.0
25/08:00am 11.1 7.3 6.0 71 2.4 WNW 15 20 8 11 - - 0.0
25/07:30am 8.9 5.9 5.8 81 1.4 NW 11 15 6 8 - - 0.0
25/07:00am 7.8 4.5 4.7 81 1.4 NW 11 13 6 7 - - 0.0
25/06:30am 6.0 3.3 3.8 86 0.9 NW 7 11 4 6 - - 0.0
25/06:00am 6.8 3.5 4.5 85 1.0 NNW 11 15 6 8 - - 0.0
25/05:30am 6.5 3.2 4.7 88 0.8 NW 11 13 6 7 - - 0.0
25/05:00am 6.2 2.9 4.5 89 0.7 NW 11 13 6 7 - - 0.0
25/04:30am 5.8 2.7 3.8 87 0.8 NNW 9 13 5 7 - - 0.0
25/04:00am 6.6 3.3 4.6 87 0.9 WNW 11 17 6 9 - - 0.0
25/03:30am 6.3 3.4 4.5 88 0.8 WNW 9 13 5 7 - - 0.0
25/03:00am 6.3 3.7 4.0 85 1.0 WNW 7 11 4 6 - - 0.0
25/02:30am 7.3 4.0 4.6 83 1.2 WNW 11 13 6 7 - - 0.0
25/02:00am 7.7 4.4 4.7 81 1.3 WNW 11 17 6 9 - - 0.0
25/01:30am 7.0 3.9 3.6 79 1.5 NW 9 13 5 7 - - 0.0
25/01:00am 8.3 5.3 3.9 74 1.9 W 9 15 5 8 - - 0.0
25/12:30am 7.5 4.3 2.8 72 2.0 W 9 11 5 6 - - 0.0
25/12:00am 8.5 5.3 3.1 69 2.3 W 9 13 5 7 - - 0.0
 
Date/Time
EST
Temp
°C
App
Temp
°C
Dew
Point
°C
Rel
Hum
%
Delta-T
°C
Wind Press
QNH
hPa
Press
MSL
hPa
Rain since
9am
mm
Dir  Spd
km/h
Gust
km/h
Spd
kts
Gust
kts
24/11:30pm 9.5 6.0 3.3 65 2.7 WNW 11 15 6 8 - - 0.0
24/11:00pm 10.8 6.6 3.6 61 3.2 W 15 19 8 10 - - 0.0
24/10:30pm 10.7 6.8 3.3 60 3.2 WNW 13 20 7 11 - - 0.0
24/10:00pm 10.6 6.2 2.9 59 3.3 WNW 15 19 8 10 - - 0.0
24/09:30pm 11.7 7.4 3.0 55 3.8 W 15 20 8 11 - - 0.0
24/09:00pm 11.2 7.6 3.0 57 3.6 WNW 11 15 6 8 - - 0.0
24/08:30pm 12.6 8.6 3.0 52 4.3 W 13 19 7 10 - - 0.0
24/08:00pm 13.4 9.4 2.6 48 4.8 W 13 20 7 11 - - 0.0
24/07:30pm 14.4 10.4 2.6 45 5.3 W 13 20 7 11 - - 0.0
24/07:00pm 14.9 10.5 2.8 44 5.5 W 15 22 8 12 - - 0.0
24/06:30pm 16.3 10.2 2.7 40 6.2 W 24 39 13 21 - - 0.0
24/06:09pm 17.3 10.4 2.5 37 6.8 W 28 46 15 25 - - 0.0
24/06:00pm 17.9 10.6 2.6 36 7.0 W 30 46 16 25 - - 0.0
24/05:55pm 18.1 11.2 2.4 35 7.2 W 28 46 15 25 - - 0.0
24/05:30pm 18.8 11.3 0.9 30 8.0 W 30 44 16 24 - - 0.0
24/05:00pm 20.2 12.4 1.6 29 8.5 WNW 32 46 17 25 - - 0.0
24/04:30pm 19.9 11.3 0.4 27 8.7 WNW 35 52 19 28 - - 0.0
24/04:13pm 20.4 13.0 1.8 29 8.6 WNW 30 48 16 26 - - 0.0
24/04:00pm 20.5 12.7 1.4 28 8.8 WNW 32 46 17 25 - - 0.0
24/03:43pm 21.1 12.7 1.4 27 9.1 WNW 35 54 19 29 - - 0.0
24/03:30pm 21.9 13.9 1.6 26 9.4 WNW 33 52 18 28 - - 0.0
24/03:00pm 21.7 13.9 1.4 26 9.4 WNW 32 52 17 28 - - 0.0
24/02:35pm 20.5 11.9 0.4 26 9.0 WNW 35 54 19 29 - - 0.0
24/02:30pm 19.9 11.8 0.9 28 8.6 WNW 33 52 18 28 - - 0.0
24/02:00pm 21.1 12.4 1.9 28 8.9 WNW 37 59 20 32 - - 0.0
24/01:30pm 21.4 13.5 2.2 28 9.0 WNW 33 54 18 29 - - 0.0
24/01:00pm 20.6 12.9 2.4 30 8.5 NW 32 46 17 25 - - 0.0
24/12:30pm 19.2 11.9 2.6 33 7.7 NW 30 52 16 28 - - 0.0
24/12:27pm 19.6 12.5 3.7 35 7.6 NW 30 52 16 28 - - 0.0
24/12:00pm 19.7 13.0 3.8 35 7.6 WNW 28 43 15 23 - - 0.0
24/11:30am 19.7 12.4 4.6 37 7.3 WNW 32 43 17 23 - - 0.0
24/11:09am 18.2 10.9 4.4 40 6.6 WNW 32 50 17 27 - - 0.0
24/11:00am 18.8 12.0 5.3 41 6.6 WNW 30 46 16 25 - - 0.0
24/10:31am 18.1 11.7 5.0 42 6.3 WNW 28 46 15 25 - - 0.0
24/10:30am 18.2 11.8 5.1 42 6.4 WNW 28 41 15 22 - - 0.0
24/10:13am 17.6 10.8 4.9 43 6.1 WNW 30 54 16 29 - - 0.0
24/10:00am 17.4 10.7 5.4 45 5.8 WNW 30 41 16 22 - - 0.0
24/09:38am 16.5 10.4 6.6 52 4.9 NW 28 48 15 26 - - 0.0
24/09:30am 15.9 9.2 5.8 51 4.9 WNW 30 41 16 22 - - 0.0
24/09:00am 15.3 9.2 6.6 56 4.3 NW 28 39 15 21 - - 0.0
24/08:30am 14.5 8.8 6.8 60 3.8 NW 26 37 14 20 - - 0.0
24/08:00am 13.2 8.8 6.5 64 3.2 NW 19 28 10 15 - - 0.0
24/07:30am 11.2 7.5 6.1 71 2.4 NNW 15 22 8 12 - - 0.0
24/07:00am 10.6 6.5 6.2 74 2.1 NNW 17 20 9 11 - - 0.0
24/06:30am 10.4 6.3 6.2 75 2.0 NNW 17 20 9 11 - - 0.0
24/06:00am 10.2 6.1 6.2 76 1.9 NNW 17 24 9 13 - - 0.0
24/05:30am 10.0 5.9 6.2 77 1.8 NNW 17 24 9 13 - - 0.0
24/05:00am 9.8 5.7 6.3 79 1.6 NNW 17 22 9 12 - - 0.0
24/04:30am 9.4 5.7 6.1 80 1.5 N 15 19 8 10 - - 0.0
24/04:00am 9.5 6.1 6.0 79 1.6 N 13 19 7 10 - - 0.0
24/03:30am 9.8 6.4 6.0 77 1.8 N 13 19 7 10 - - 0.0
24/03:00am 9.9 6.6 6.3 78 1.7 NNW 13 20 7 11 - - 0.0
24/02:30am 9.1 6.0 5.7 79 1.6 N 11 15 6 8 - - 0.0
24/02:00am 10.0 6.6 6.0 76 1.9 NNW 13 17 7 9 - - 0.0
24/01:30am 9.9 6.6 6.6 80 1.6 NNW 13 17 7 9 - - 0.0
24/01:00am 9.0 6.1 6.3 83 1.3 NW 11 13 6 7 - - 0.0
24/12:30am 9.7 6.8 6.6 81 1.5 W 11 15 6 8 - - 0.0
24/12:00am 10.7 8.0 7.4 80 1.6 W 11 19 6 10 - - 0.0
 
Date/Time
EST
Temp
°C
App
Temp
°C
Dew
Point
°C
Rel
Hum
%
Delta-T
°C
Wind Press
QNH
hPa
Press
MSL
hPa
Rain since
9am
mm
Dir  Spd
km/h
Gust
km/h
Spd
kts
Gust
kts
23/11:30pm 10.1 8.1 7.3 83 1.3 W 7 9 4 5 - - 0.0
23/11:00pm 11.4 8.8 7.7 78 1.8 W 11 17 6 9 - - 0.0
23/10:30pm 12.7 9.4 8.0 73 2.3 W 15 24 8 13 - - 0.0
23/10:00pm 13.4 9.7 7.8 69 2.8 WSW 17 26 9 14 - - 0.0
23/09:30pm 14.3 10.2 7.8 65 3.2 W 19 28 10 15 - - 0.0
23/09:00pm 15.0 10.7 6.8 58 4.0 W 19 28 10 15 - - 0.0
23/08:30pm 16.7 10.2 4.7 45 5.7 WSW 28 39 15 21 - - 0.0
23/08:00pm 17.5 10.1 4.8 43 6.1 WSW 33 48 18 26 - - 0.0
23/07:42pm 17.9 11.5 5.2 43 6.2 W 28 48 15 26 - - 0.0
23/07:30pm 18.1 12.0 4.7 41 6.4 W 26 41 14 22 - - 0.0
23/07:00pm 18.8 12.5 3.8 37 7.1 W 26 43 14 23 - - 0.0
23/06:30pm 19.8 12.5 2.2 31 8.2 W 30 54 16 29 - - 0.0
23/06:00pm 21.5 13.3 2.7 29 8.9 W 35 61 19 33 - - 0.0
23/05:30pm 22.9 14.7 2.9 27 9.6 W 35 59 19 32 - - 0.0
23/05:00pm 24.8 14.5 2.9 24 10.7 W 46 69 25 37 - - 0.0
23/04:30pm 26.2 14.6 -3.4 14 13.0 W 48 69 26 37 - - 0.0
23/04:00pm 27.3 14.8 0.9 18 12.6 W 56 74 30 40 - - 0.0
23/03:30pm 29.3 19.1 3.3 19 13.1 WNW 46 74 25 40 - - 0.0
23/03:00pm 29.7 19.2 3.6 19 13.3 WNW 48 70 26 38 - - 0.0
23/02:37pm 30.7 21.0 5.9 21 13.2 WNW 46 65 25 35 - - 0.0
23/02:30pm 30.2 20.1 5.5 21 13.0 WNW 48 65 26 35 - - 0.0
23/02:00pm 30.5 20.6 5.0 20 13.4 WNW 46 67 25 36 - - 0.0
23/01:30pm 30.9 21.1 5.3 20 13.5 WNW 46 69 25 37 - - 0.0
23/01:00pm 31.8 22.8 4.6 18 14.3 WNW 41 63 22 34 - - 0.0
23/12:30pm 32.2 20.9 1.3 14 15.4 WNW 50 69 27 37 - - 0.0
23/12:00pm 34.3 23.7 -1.7 10 17.3 WNW 44 65 24 35 - - 0.0
23/11:30am 34.8 24.5 -1.3 10 17.5 NW 43 67 23 36 - - 0.0
23/11:00am 34.1 24.3 -0.5 11 16.9 NNW 41 61 22 33 - - 0.0
23/10:30am 32.4 23.3 -0.6 12 15.9 NNW 37 59 20 32 - - 0.0
23/10:05am 30.8 23.7 1.2 15 14.6 NNW 28 46 15 25 - - 0.0
23/10:00am 30.1 23.6 2.4 17 13.9 N 26 37 14 20 - - 0.0
23/09:30am 26.9 21.2 2.7 21 11.9 N 22 30 12 16 - - 0.0
23/09:00am 23.8 19.6 3.7 27 9.9 N 15 22 8 12 - - 0.0
23/08:30am 22.2 17.9 1.3 25 9.7 N 13 19 7 10 - - 0.0
23/08:00am 20.5 17.0 1.4 28 8.8 WNW 9 17 5 9 - - 0.0
23/07:30am 20.4 14.2 -0.3 25 9.2 N 22 32 12 17 - - 0.0
23/07:00am 18.9 13.0 -0.5 27 8.4 NNE 20 28 11 15 - - 0.0
23/06:30am 18.0 12.2 0.2 30 7.8 NE 20 28 11 15 - - 0.0
23/06:00am 18.5 12.8 0.6 30 7.9 NE 20 28 11 15 - - 0.0
23/05:30am 18.7 12.8 1.7 32 7.7 NNE 22 33 12 18 - - 0.0
23/05:00am 18.7 13.3 2.5 34 7.5 NNE 20 28 11 15 - - 0.0
23/04:30am 18.3 13.1 3.4 37 7.0 NNE 20 28 11 15 - - 0.0
23/04:00am 19.1 14.0 3.3 35 7.4 NE 19 24 10 13 - - 0.0
23/03:30am 18.9 14.3 3.9 37 7.1 NE 17 22 9 12 - - 0.0
23/03:00am 18.5 14.0 4.3 39 6.8 NE 17 24 9 13 - - 0.0
23/02:30am 18.6 14.4 4.0 38 6.9 NE 15 20 8 11 - - 0.0
23/02:00am 19.0 14.8 4.0 37 7.2 NE 15 19 8 10 - - 0.0
23/01:30am 21.1 17.0 4.2 33 8.2 NE 15 20 8 11 - - 0.0
23/01:00am 21.1 16.8 5.1 35 7.9 NE 17 37 9 20 - - 0.0
23/12:30am 20.4 16.3 4.4 35 7.8 NE 15 19 8 10 - - 0.0
23/12:00am 19.6 15.6 4.9 38 7.2 NE 15 19 8 10 - - 0.0
 
Date/Time
EST
Temp
°C
App
Temp
°C
Dew
Point
°C
Rel
Hum
%
Delta-T
°C
Wind Press
QNH
hPa
Press
MSL
hPa
Rain since
9am
mm
Dir  Spd
km/h
Gust
km/h
Spd
kts
Gust
kts
22/11:30pm 19.4 15.4 5.1 39 7.0 ENE 15 17 8 9 - - 0.0
22/11:00pm 19.4 15.8 5.1 39 7.0 ENE 13 15 7 8 - - 0.0
22/10:30pm 20.2 17.0 5.1 37 7.4 NE 11 13 6 7 - - 0.0
22/10:00pm 18.5 16.1 5.4 42 6.4 ENE 7 9 4 5 - - 0.0
22/09:30pm 17.7 16.7 5.6 45 5.9 CALM 0 0 0 0 - - 0.0
22/09:00pm 17.7 16.8 5.9 46 5.8 CALM 0 0 0 0 - - 0.0
22/08:30pm 18.5 17.6 6.0 44 6.2 CALM 0 0 0 0 - - 0.0
22/08:00pm 18.9 17.9 5.7 42 6.5 CALM 0 0 0 0 - - 0.0
22/07:30pm 19.1 17.8 6.2 43 6.4 NW 2 4 1 2 - - 0.0
22/07:00pm 19.0 17.5 6.8 45 6.2 WNW 4 4 2 2 - - 0.0
22/06:30pm 21.6 19.7 6.7 38 7.6 WNW 6 7 3 4 - - 0.0

Other Formats:

Comma delimited format used in spreadsheet applications
http://www.bom.gov.au/fwo/IDV60801/IDV60801.95831.axf

JavaScript Object Notation format (JSON) in row-major order
http://www.bom.gov.au/fwo/IDV60801/IDV60801.95831.json